createdAt,value
2022-07-27T06:13:29.879Z,1011.44
2022-07-27T06:23:29.674Z,1011.51
2022-07-27T06:33:29.830Z,1011.57
2022-07-27T06:43:29.690Z,1011.50
2022-07-27T06:53:29.943Z,1011.44
2022-07-27T07:03:29.841Z,1011.39
2022-07-27T07:13:32.158Z,1011.40
2022-07-27T07:23:29.930Z,1011.39
2022-07-27T07:33:29.761Z,1011.42
2022-07-27T07:43:29.826Z,1011.51
2022-07-27T07:53:30.027Z,1011.57
2022-07-27T08:03:29.805Z,1011.56
2022-07-27T08:13:29.951Z,1011.67
2022-07-27T08:23:29.949Z,1011.49
2022-07-27T08:33:29.977Z,1011.58
2022-07-27T08:43:29.834Z,1011.53
2022-07-27T08:53:35.796Z,1011.59
2022-07-27T09:03:29.994Z,1011.48
2022-07-27T09:13:30.084Z,1011.43
2022-07-27T09:23:30.108Z,1011.32
2022-07-27T09:33:31.040Z,1011.37
2022-07-27T09:53:42.761Z,1011.07
2022-07-27T10:03:29.871Z,1011.22
2022-07-27T10:13:30.023Z,1011.16
2022-07-27T10:23:29.985Z,1011.19
2022-07-27T10:33:29.874Z,1011.13
2022-07-27T10:43:29.914Z,1011.21
2022-07-27T10:53:29.874Z,1010.99
2022-07-27T11:03:29.853Z,1010.98
2022-07-27T11:13:32.019Z,1011.00
2022-07-27T11:23:51.669Z,1011.20
2022-07-27T11:33:30.145Z,1010.98
2022-07-27T11:43:33.880Z,1011.01
2022-07-27T11:53:29.848Z,1011.18
2022-07-27T12:03:32.898Z,1011.09
2022-07-27T12:13:29.896Z,1011.09
2022-07-27T12:23:30.055Z,1011.13
2022-07-27T12:33:30.244Z,1010.93
2022-07-27T12:43:30.020Z,1010.87
2022-07-27T12:53:29.971Z,1010.87
2022-07-27T13:03:30.002Z,1011.02
2022-07-27T13:13:30.077Z,1011.22
2022-07-27T13:23:30.001Z,1011.13
2022-07-27T13:33:30.061Z,1011.02
2022-07-27T13:43:29.982Z,1011.02
2022-07-27T13:53:30.122Z,1010.76
2022-07-27T14:03:30.005Z,1010.80
2022-07-27T14:13:30.076Z,1010.92
2022-07-27T14:23:30.038Z,1010.98
2022-07-27T14:33:36.755Z,1010.97
2022-07-27T14:43:30.169Z,1011.00
2022-07-27T14:53:30.440Z,1010.92
2022-07-27T15:03:30.321Z,1010.85
2022-07-27T15:13:30.218Z,1010.95
2022-07-27T15:23:30.647Z,1010.94
2022-07-27T15:33:30.252Z,1010.86
2022-07-27T15:43:30.376Z,1010.83
2022-07-27T15:53:30.316Z,1010.78
2022-07-27T16:03:30.559Z,1010.88
2022-07-27T16:13:30.359Z,1010.91
2022-07-27T16:23:30.442Z,1010.83
2022-07-27T16:33:30.536Z,1010.76
2022-07-27T16:43:33.943Z,1010.85
2022-07-27T16:53:30.527Z,1010.84
2022-07-27T17:03:30.510Z,1010.94
2022-07-27T17:13:33.551Z,1011.00
2022-07-27T17:23:30.535Z,1010.97
2022-07-27T17:33:30.368Z,1010.83
2022-07-27T17:43:30.564Z,1010.85
2022-07-27T17:53:30.504Z,1010.93
2022-07-27T18:03:30.567Z,1010.92
2022-07-27T18:13:38.879Z,1010.76
2022-07-27T18:23:30.704Z,1010.72
2022-07-27T18:33:36.407Z,1010.90
2022-07-27T18:43:30.624Z,1010.99
2022-07-27T18:53:30.612Z,1010.99
2022-07-27T19:03:30.662Z,1011.22
2022-07-27T19:13:30.724Z,1011.30
